sensor_id;sensor_type;location;lat;lon;timestamp;P1;durP1;ratioP1;P2;durP2;ratioP2
8562;SDS011;16392;52.508;13.468;2023-08-06T00:01:52;520.53;;;237.73;;
8562;SDS011;16392;52.508;13.468;2023-08-06T00:04:19;521.60;;;231.37;;
8562;SDS011;16392;52.508;13.468;2023-08-06T00:06:47;517.97;;;229.83;;
8562;SDS011;16392;52.508;13.468;2023-08-06T00:09:14;518.73;;;224.07;;
8562;SDS011;16392;52.508;13.468;2023-08-06T00:11:41;521.17;;;217.37;;
8562;SDS011;16392;52.508;13.468;2023-08-06T00:14:09;521.50;;;218.40;;
8562;SDS011;16392;52.508;13.468;2023-08-06T00:16:35;521.80;;;235.63;;
8562;SDS011;16392;52.508;13.468;2023-08-06T00:19:02;522.33;;;226.63;;
8562;SDS011;16392;52.508;13.468;2023-08-06T00:21:28;521.20;;;236.67;;
8562;SDS011;16392;52.508;13.468;2023-08-06T00:23:56;522.77;;;232.47;;
8562;SDS011;16392;52.508;13.468;2023-08-06T00:26:23;521.67;;;233.53;;
8562;SDS011;16392;52.508;13.468;2023-08-06T00:28:50;519.23;;;235.20;;
8562;SDS011;16392;52.508;13.468;2023-08-06T00:31:16;521.70;;;233.67;;
8562;SDS011;16392;52.508;13.468;2023-08-06T00:33:43;523.00;;;234.67;;
8562;SDS011;16392;52.508;13.468;2023-08-06T00:36:09;520.97;;;234.30;;
8562;SDS011;16392;52.508;13.468;2023-08-06T00:38:36;521.43;;;226.90;;
8562;SDS011;16392;52.508;13.468;2023-08-06T00:41:04;518.67;;;228.93;;
8562;SDS011;16392;52.508;13.468;2023-08-06T00:43:30;517.60;;;226.37;;
8562;SDS011;16392;52.508;13.468;2023-08-06T00:45:57;533.37;;;245.47;;
8562;SDS011;16392;52.508;13.468;2023-08-06T00:48:24;522.00;;;239.00;;
8562;SDS011;16392;52.508;13.468;2023-08-06T00:50:50;516.93;;;220.00;;
8562;SDS011;16392;52.508;13.468;2023-08-06T00:53:17;525.17;;;241.07;;
8562;SDS011;16392;52.508;13.468;2023-08-06T00:55:44;517.50;;;219.30;;
8562;SDS011;16392;52.508;13.468;2023-08-06T00:58:12;518.03;;;217.77;;
8562;SDS011;16392;52.508;13.468;2023-08-06T01:00:40;514.57;;;219.30;;
8562;SDS011;16392;52.508;13.468;2023-08-06T01:03:07;517.57;;;211.97;;
8562;SDS011;16392;52.508;13.468;2023-08-06T01:05:34;516.07;;;217.43;;
8562;SDS011;16392;52.508;13.468;2023-08-06T01:08:05;517.23;;;215.10;;
8562;SDS011;16392;52.508;13.468;2023-08-06T01:10:45;513.33;;;214.90;;
8562;SDS011;16392;52.508;13.468;2023-08-06T01:13:23;512.43;;;203.43;;
8562;SDS011;16392;52.508;13.468;2023-08-06T01:15:55;511.50;;;204.33;;
8562;SDS011;16392;52.508;13.468;2023-08-06T01:18:24;513.97;;;208.97;;
8562;SDS011;16392;52.508;13.468;2023-08-06T01:20:52;512.60;;;207.37;;
8562;SDS011;16392;52.508;13.468;2023-08-06T01:23:19;512.67;;;198.83;;
8562;SDS011;16392;52.508;13.468;2023-08-06T01:25:48;509.67;;;199.13;;
8562;SDS011;16392;52.508;13.468;2023-08-06T01:28:22;514.93;;;200.07;;
8562;SDS011;16392;52.508;13.468;2023-08-06T01:30:53;511.97;;;207.70;;
8562;SDS011;16392;52.508;13.468;2023-08-06T01:33:25;509.43;;;193.53;;
8562;SDS011;16392;52.508;13.468;2023-08-06T01:35:58;510.20;;;190.53;;
8562;SDS011;16392;52.508;13.468;2023-08-06T01:38:25;515.77;;;192.47;;
8562;SDS011;16392;52.508;13.468;2023-08-06T01:40:53;514.23;;;203.27;;
8562;SDS011;16392;52.508;13.468;2023-08-06T01:43:19;510.93;;;196.47;;
8562;SDS011;16392;52.508;13.468;2023-08-06T01:45:46;511.53;;;194.10;;
8562;SDS011;16392;52.508;13.468;2023-08-06T01:48:12;509.37;;;190.70;;
8562;SDS011;16392;52.508;13.468;2023-08-06T01:50:39;507.50;;;189.70;;
8562;SDS011;16392;52.508;13.468;2023-08-06T01:53:07;503.17;;;170.23;;
8562;SDS011;16392;52.508;13.468;2023-08-06T01:55:33;503.20;;;153.53;;
8562;SDS011;16392;52.508;13.468;2023-08-06T01:58:00;495.27;;;129.10;;
8562;SDS011;16392;52.508;13.468;2023-08-06T02:00:27;499.33;;;147.20;;
8562;SDS011;16392;52.508;13.468;2023-08-06T02:02:54;498.53;;;144.00;;
8562;SDS011;16392;52.508;13.468;2023-08-06T02:05:21;495.83;;;127.67;;
8562;SDS011;16392;52.508;13.468;2023-08-06T02:07:47;496.77;;;128.50;;
8562;SDS011;16392;52.508;13.468;2023-08-06T02:10:15;496.03;;;125.53;;
8562;SDS011;16392;52.508;13.468;2023-08-06T02:12:42;498.67;;;126.50;;
8562;SDS011;16392;52.508;13.468;2023-08-06T02:15:09;499.70;;;138.77;;
8562;SDS011;16392;52.508;13.468;2023-08-06T02:17:35;493.03;;;123.80;;
8562;SDS011;16392;52.508;13.468;2023-08-06T02:20:02;491.63;;;132.00;;
8562;SDS011;16392;52.508;13.468;2023-08-06T02:22:29;493.83;;;131.43;;
8562;SDS011;16392;52.508;13.468;2023-08-06T02:24:56;495.27;;;129.23;;
8562;SDS011;16392;52.508;13.468;2023-08-06T02:27:23;487.53;;;124.93;;
8562;SDS011;16392;52.508;13.468;2023-08-06T02:29:50;497.50;;;134.27;;
8562;SDS011;16392;52.508;13.468;2023-08-06T02:32:16;492.83;;;124.27;;
8562;SDS011;16392;52.508;13.468;2023-08-06T02:34:43;493.93;;;129.63;;
8562;SDS011;16392;52.508;13.468;2023-08-06T02:37:10;493.70;;;132.30;;
8562;SDS011;16392;52.508;13.468;2023-08-06T02:39:36;491.27;;;124.67;;
8562;SDS011;16392;52.508;13.468;2023-08-06T02:42:05;492.17;;;122.70;;
8562;SDS011;16392;52.508;13.468;2023-08-06T02:44:33;492.37;;;128.57;;
8562;SDS011;16392;52.508;13.468;2023-08-06T02:47:00;489.70;;;119.63;;
8562;SDS011;16392;52.508;13.468;2023-08-06T02:49:27;493.50;;;125.97;;
8562;SDS011;16392;52.508;13.468;2023-08-06T02:51:53;487.40;;;122.73;;
8562;SDS011;16392;52.508;13.468;2023-08-06T02:54:20;491.27;;;125.57;;
8562;SDS011;16392;52.508;13.468;2023-08-06T02:56:47;487.30;;;122.50;;
8562;SDS011;16392;52.508;13.468;2023-08-06T02:59:13;497.77;;;130.00;;
8562;SDS011;16392;52.508;13.468;2023-08-06T03:01:41;490.37;;;134.30;;
8562;SDS011;16392;52.508;13.468;2023-08-06T03:04:08;487.63;;;122.20;;
8562;SDS011;16392;52.508;13.468;2023-08-06T03:06:34;490.20;;;127.77;;
8562;SDS011;16392;52.508;13.468;2023-08-06T03:09:01;489.30;;;124.87;;
8562;SDS011;16392;52.508;13.468;2023-08-06T03:11:27;491.87;;;121.47;;
8562;SDS011;16392;52.508;13.468;2023-08-06T03:13:54;486.27;;;129.73;;
8562;SDS011;16392;52.508;13.468;2023-08-06T03:16:21;484.67;;;125.70;;
8562;SDS011;16392;52.508;13.468;2023-08-06T03:18:48;488.70;;;135.30;;
8562;SDS011;16392;52.508;13.468;2023-08-06T03:21:15;487.87;;;133.07;;
8562;SDS011;16392;52.508;13.468;2023-08-06T03:23:42;484.70;;;120.60;;
8562;SDS011;16392;52.508;13.468;2023-08-06T03:26:08;491.30;;;138.13;;
8562;SDS011;16392;52.508;13.468;2023-08-06T03:28:35;488.47;;;130.80;;
8562;SDS011;16392;52.508;13.468;2023-08-06T03:31:02;489.97;;;135.87;;
8562;SDS011;16392;52.508;13.468;2023-08-06T03:33:29;488.37;;;130.17;;
8562;SDS011;16392;52.508;13.468;2023-08-06T03:35:57;490.67;;;132.20;;
8562;SDS011;16392;52.508;13.468;2023-08-06T03:38:24;487.93;;;140.17;;
8562;SDS011;16392;52.508;13.468;2023-08-06T03:40:50;492.10;;;139.73;;
8562;SDS011;16392;52.508;13.468;2023-08-06T03:43:17;490.23;;;135.93;;
8562;SDS011;16392;52.508;13.468;2023-08-06T03:45:43;488.70;;;137.53;;
8562;SDS011;16392;52.508;13.468;2023-08-06T03:48:10;496.97;;;141.37;;
8562;SDS011;16392;52.508;13.468;2023-08-06T03:50:37;489.53;;;127.30;;
8562;SDS011;16392;52.508;13.468;2023-08-06T03:53:05;491.27;;;140.80;;
8562;SDS011;16392;52.508;13.468;2023-08-06T03:55:31;488.93;;;131.43;;
8562;SDS011;16392;52.508;13.468;2023-08-06T03:57:58;488.57;;;132.40;;
8562;SDS011;16392;52.508;13.468;2023-08-06T04:00:25;489.63;;;135.20;;
8562;SDS011;16392;52.508;13.468;2023-08-06T04:02:51;483.73;;;127.00;;
8562;SDS011;16392;52.508;13.468;2023-08-06T04:05:18;487.13;;;131.47;;
8562;SDS011;16392;52.508;13.468;2023-08-06T04:07:45;486.73;;;131.27;;
8562;SDS011;16392;52.508;13.468;2023-08-06T04:10:12;489.40;;;132.53;;
8562;SDS011;16392;52.508;13.468;2023-08-06T04:12:39;488.60;;;135.70;;
8562;SDS011;16392;52.508;13.468;2023-08-06T04:15:06;486.60;;;134.33;;
8562;SDS011;16392;52.508;13.468;2023-08-06T04:17:33;488.50;;;139.17;;
8562;SDS011;16392;52.508;13.468;2023-08-06T04:20:00;485.57;;;139.17;;
8562;SDS011;16392;52.508;13.468;2023-08-06T04:22:27;486.57;;;141.33;;
8562;SDS011;16392;52.508;13.468;2023-08-06T04:24:54;483.00;;;129.17;;
8562;SDS011;16392;52.508;13.468;2023-08-06T04:27:21;487.37;;;139.93;;
8562;SDS011;16392;52.508;13.468;2023-08-06T04:29:48;487.27;;;134.43;;
8562;SDS011;16392;52.508;13.468;2023-08-06T04:32:14;487.90;;;136.73;;
8562;SDS011;16392;52.508;13.468;2023-08-06T04:34:42;488.70;;;139.73;;
8562;SDS011;16392;52.508;13.468;2023-08-06T04:37:09;485.20;;;133.93;;
8562;SDS011;16392;52.508;13.468;2023-08-06T04:39:35;488.50;;;133.00;;
8562;SDS011;16392;52.508;13.468;2023-08-06T04:42:02;486.33;;;133.17;;
8562;SDS011;16392;52.508;13.468;2023-08-06T04:44:31;488.17;;;129.57;;
8562;SDS011;16392;52.508;13.468;2023-08-06T04:46:57;485.93;;;129.77;;
8562;SDS011;16392;52.508;13.468;2023-08-06T04:49:24;487.53;;;132.93;;
8562;SDS011;16392;52.508;13.468;2023-08-06T04:51:51;488.23;;;127.33;;
8562;SDS011;16392;52.508;13.468;2023-08-06T04:54:17;488.43;;;124.30;;
8562;SDS011;16392;52.508;13.468;2023-08-06T04:56:44;481.87;;;129.97;;
8562;SDS011;16392;52.508;13.468;2023-08-06T04:59:11;491.77;;;130.60;;
8562;SDS011;16392;52.508;13.468;2023-08-06T05:01:39;488.33;;;121.67;;
8562;SDS011;16392;52.508;13.468;2023-08-06T05:04:05;486.20;;;129.60;;
8562;SDS011;16392;52.508;13.468;2023-08-06T05:06:32;488.47;;;130.07;;
8562;SDS011;16392;52.508;13.468;2023-08-06T05:08:59;491.97;;;132.60;;
8562;SDS011;16392;52.508;13.468;2023-08-06T05:11:25;490.43;;;139.87;;
8562;SDS011;16392;52.508;13.468;2023-08-06T05:13:52;484.53;;;132.43;;
8562;SDS011;16392;52.508;13.468;2023-08-06T05:16:18;492.27;;;137.23;;
8562;SDS011;16392;52.508;13.468;2023-08-06T05:18:46;493.30;;;138.23;;
8562;SDS011;16392;52.508;13.468;2023-08-06T05:21:13;488.50;;;136.30;;
8562;SDS011;16392;52.508;13.468;2023-08-06T05:23:41;493.20;;;143.30;;
8562;SDS011;16392;52.508;13.468;2023-08-06T05:26:08;488.77;;;143.67;;
8562;SDS011;16392;52.508;13.468;2023-08-06T05:28:34;491.43;;;143.90;;
8562;SDS011;16392;52.508;13.468;2023-08-06T05:31:02;492.00;;;146.90;;
8562;SDS011;16392;52.508;13.468;2023-08-06T05:33:29;497.43;;;148.90;;
8562;SDS011;16392;52.508;13.468;2023-08-06T05:35:57;494.63;;;151.27;;
8562;SDS011;16392;52.508;13.468;2023-08-06T05:38:24;490.60;;;142.67;;
8562;SDS011;16392;52.508;13.468;2023-08-06T05:40:51;500.90;;;154.53;;
8562;SDS011;16392;52.508;13.468;2023-08-06T05:43:17;497.73;;;155.87;;
8562;SDS011;16392;52.508;13.468;2023-08-06T05:45:44;498.33;;;149.40;;
8562;SDS011;16392;52.508;13.468;2023-08-06T05:48:11;503.10;;;159.90;;
8562;SDS011;16392;52.508;13.468;2023-08-06T05:50:38;499.80;;;151.20;;
8562;SDS011;16392;52.508;13.468;2023-08-06T05:53:06;500.17;;;149.97;;
8562;SDS011;16392;52.508;13.468;2023-08-06T05:55:32;498.93;;;144.70;;
8562;SDS011;16392;52.508;13.468;2023-08-06T05:57:59;501.03;;;153.90;;
8562;SDS011;16392;52.508;13.468;2023-08-06T06:00:26;499.47;;;147.57;;
8562;SDS011;16392;52.508;13.468;2023-08-06T06:02:52;497.53;;;160.50;;
8562;SDS011;16392;52.508;13.468;2023-08-06T06:05:19;500.40;;;150.17;;
8562;SDS011;16392;52.508;13.468;2023-08-06T06:07:46;504.97;;;150.37;;
8562;SDS011;16392;52.508;13.468;2023-08-06T06:10:14;501.20;;;152.33;;
8562;SDS011;16392;52.508;13.468;2023-08-06T06:12:40;504.30;;;152.57;;
8562;SDS011;16392;52.508;13.468;2023-08-06T06:15:07;501.27;;;160.00;;
8562;SDS011;16392;52.508;13.468;2023-08-06T06:17:34;501.90;;;153.97;;
8562;SDS011;16392;52.508;13.468;2023-08-06T06:20:01;498.60;;;155.33;;
8562;SDS011;16392;52.508;13.468;2023-08-06T06:22:29;510.87;;;167.40;;
8562;SDS011;16392;52.508;13.468;2023-08-06T06:24:55;505.57;;;155.10;;
8562;SDS011;16392;52.508;13.468;2023-08-06T06:27:23;506.77;;;167.63;;
8562;SDS011;16392;52.508;13.468;2023-08-06T06:29:50;508.67;;;168.17;;
8562;SDS011;16392;52.508;13.468;2023-08-06T06:32:17;504.50;;;169.67;;
8562;SDS011;16392;52.508;13.468;2023-08-06T06:34:44;515.30;;;173.33;;
8562;SDS011;16392;52.508;13.468;2023-08-06T06:37:10;513.23;;;205.53;;
8562;SDS011;16392;52.508;13.468;2023-08-06T06:39:37;514.67;;;210.80;;
8562;SDS011;16392;52.508;13.468;2023-08-06T06:42:03;508.17;;;183.43;;
8562;SDS011;16392;52.508;13.468;2023-08-06T06:44:32;511.13;;;193.50;;
8562;SDS011;16392;52.508;13.468;2023-08-06T06:46:58;512.27;;;189.63;;
8562;SDS011;16392;52.508;13.468;2023-08-06T06:49:25;513.90;;;196.27;;
8562;SDS011;16392;52.508;13.468;2023-08-06T06:51:51;516.07;;;206.93;;
8562;SDS011;16392;52.508;13.468;2023-08-06T06:54:18;512.67;;;212.70;;
8562;SDS011;16392;52.508;13.468;2023-08-06T06:56:45;518.07;;;224.37;;
8562;SDS011;16392;52.508;13.468;2023-08-06T06:59:11;514.60;;;222.10;;
8562;SDS011;16392;52.508;13.468;2023-08-06T07:01:39;520.63;;;230.97;;
8562;SDS011;16392;52.508;13.468;2023-08-06T07:04:05;517.17;;;226.83;;
8562;SDS011;16392;52.508;13.468;2023-08-06T07:06:32;512.60;;;218.77;;
8562;SDS011;16392;52.508;13.468;2023-08-06T07:08:59;519.37;;;231.67;;
8562;SDS011;16392;52.508;13.468;2023-08-06T07:11:25;517.90;;;217.00;;
8562;SDS011;16392;52.508;13.468;2023-08-06T07:13:55;519.33;;;233.70;;
8562;SDS011;16392;52.508;13.468;2023-08-06T07:16:22;516.43;;;227.73;;
8562;SDS011;16392;52.508;13.468;2023-08-06T07:18:51;517.77;;;227.90;;
8562;SDS011;16392;52.508;13.468;2023-08-06T07:21:18;514.53;;;221.67;;
8562;SDS011;16392;52.508;13.468;2023-08-06T07:23:45;518.93;;;234.90;;
8562;SDS011;16392;52.508;13.468;2023-08-06T07:26:14;518.87;;;243.63;;
8562;SDS011;16392;52.508;13.468;2023-08-06T07:28:41;524.13;;;239.43;;
8562;SDS011;16392;52.508;13.468;2023-08-06T07:31:08;523.33;;;254.60;;
8562;SDS011;16392;52.508;13.468;2023-08-06T07:33:34;526.40;;;261.57;;
8562;SDS011;16392;52.508;13.468;2023-08-06T07:36:08;526.47;;;260.93;;
8562;SDS011;16392;52.508;13.468;2023-08-06T07:38:38;525.33;;;242.63;;
8562;SDS011;16392;52.508;13.468;2023-08-06T07:41:04;526.40;;;261.20;;
8562;SDS011;16392;52.508;13.468;2023-08-06T07:43:31;525.30;;;254.10;;
8562;SDS011;16392;52.508;13.468;2023-08-06T07:45:58;526.87;;;266.40;;
8562;SDS011;16392;52.508;13.468;2023-08-06T07:48:25;524.40;;;260.70;;
8562;SDS011;16392;52.508;13.468;2023-08-06T07:50:52;523.17;;;236.53;;
8562;SDS011;16392;52.508;13.468;2023-08-06T07:53:20;523.53;;;260.37;;
8562;SDS011;16392;52.508;13.468;2023-08-06T07:55:50;519.93;;;235.67;;
8562;SDS011;16392;52.508;13.468;2023-08-06T07:58:17;524.60;;;252.43;;
8562;SDS011;16392;52.508;13.468;2023-08-06T08:00:43;525.43;;;256.10;;
8562;SDS011;16392;52.508;13.468;2023-08-06T08:03:10;521.90;;;249.87;;
8562;SDS011;16392;52.508;13.468;2023-08-06T08:05:38;522.60;;;249.30;;
8562;SDS011;16392;52.508;13.468;2023-08-06T08:08:04;522.47;;;249.10;;
8562;SDS011;16392;52.508;13.468;2023-08-06T08:10:32;523.87;;;251.67;;
8562;SDS011;16392;52.508;13.468;2023-08-06T08:13:01;523.60;;;257.23;;
8562;SDS011;16392;52.508;13.468;2023-08-06T08:15:29;525.60;;;258.50;;
8562;SDS011;16392;52.508;13.468;2023-08-06T08:17:56;524.00;;;255.03;;
8562;SDS011;16392;52.508;13.468;2023-08-06T08:20:23;518.37;;;242.17;;
8562;SDS011;16392;52.508;13.468;2023-08-06T08:22:49;526.13;;;255.83;;
8562;SDS011;16392;52.508;13.468;2023-08-06T08:25:16;524.00;;;253.70;;
8562;SDS011;16392;52.508;13.468;2023-08-06T08:27:44;521.10;;;240.10;;
8562;SDS011;16392;52.508;13.468;2023-08-06T08:30:10;521.20;;;244.47;;
8562;SDS011;16392;52.508;13.468;2023-08-06T08:32:37;519.13;;;240.17;;
8562;SDS011;16392;52.508;13.468;2023-08-06T08:35:04;517.00;;;237.37;;
8562;SDS011;16392;52.508;13.468;2023-08-06T08:37:30;517.70;;;237.97;;
8562;SDS011;16392;52.508;13.468;2023-08-06T08:39:57;515.20;;;232.77;;
8562;SDS011;16392;52.508;13.468;2023-08-06T08:42:25;522.17;;;231.20;;
8562;SDS011;16392;52.508;13.468;2023-08-06T08:44:54;521.60;;;239.00;;
8562;SDS011;16392;52.508;13.468;2023-08-06T08:47:21;521.10;;;245.70;;
8562;SDS011;16392;52.508;13.468;2023-08-06T08:49:48;521.43;;;260.43;;
8562;SDS011;16392;52.508;13.468;2023-08-06T08:52:18;523.70;;;256.13;;
8562;SDS011;16392;52.508;13.468;2023-08-06T08:54:45;524.40;;;266.80;;
8562;SDS011;16392;52.508;13.468;2023-08-06T08:57:16;529.10;;;284.67;;
8562;SDS011;16392;52.508;13.468;2023-08-06T08:59:43;532.77;;;289.23;;
8562;SDS011;16392;52.508;13.468;2023-08-06T09:02:11;531.00;;;288.23;;
8562;SDS011;16392;52.508;13.468;2023-08-06T09:04:40;534.20;;;295.60;;
8562;SDS011;16392;52.508;13.468;2023-08-06T09:07:07;535.77;;;308.47;;
8562;SDS011;16392;52.508;13.468;2023-08-06T09:09:35;537.47;;;298.03;;
8562;SDS011;16392;52.508;13.468;2023-08-06T09:12:06;537.33;;;307.73;;
8562;SDS011;16392;52.508;13.468;2023-08-06T09:14:37;536.83;;;303.07;;
8562;SDS011;16392;52.508;13.468;2023-08-06T09:17:04;536.87;;;317.47;;
8562;SDS011;16392;52.508;13.468;2023-08-06T09:19:32;537.57;;;318.83;;
8562;SDS011;16392;52.508;13.468;2023-08-06T09:21:59;542.67;;;331.10;;
8562;SDS011;16392;52.508;13.468;2023-08-06T09:24:26;544.90;;;333.80;;
8562;SDS011;16392;52.508;13.468;2023-08-06T09:26:53;544.40;;;329.50;;
8562;SDS011;16392;52.508;13.468;2023-08-06T09:29:19;547.93;;;327.87;;
8562;SDS011;16392;52.508;13.468;2023-08-06T09:31:47;538.23;;;314.00;;
8562;SDS011;16392;52.508;13.468;2023-08-06T09:34:16;538.87;;;303.43;;
8562;SDS011;16392;52.508;13.468;2023-08-06T09:36:46;542.43;;;305.20;;
8562;SDS011;16392;52.508;13.468;2023-08-06T09:39:14;531.33;;;284.57;;
8562;SDS011;16392;52.508;13.468;2023-08-06T09:41:42;532.40;;;278.93;;
8562;SDS011;16392;52.508;13.468;2023-08-06T09:44:14;525.20;;;262.97;;
8562;SDS011;16392;52.508;13.468;2023-08-06T09:46:42;523.30;;;252.87;;
8562;SDS011;16392;52.508;13.468;2023-08-06T09:49:12;521.83;;;245.27;;
8562;SDS011;16392;52.508;13.468;2023-08-06T09:51:39;521.03;;;235.40;;
8562;SDS011;16392;52.508;13.468;2023-08-06T09:54:08;519.20;;;233.27;;
8562;SDS011;16392;52.508;13.468;2023-08-06T09:56:37;523.93;;;228.20;;
8562;SDS011;16392;52.508;13.468;2023-08-06T09:59:04;511.30;;;218.97;;
8562;SDS011;16392;52.508;13.468;2023-08-06T10:01:31;521.17;;;243.77;;
8562;SDS011;16392;52.508;13.468;2023-08-06T10:03:59;522.60;;;239.93;;
8562;SDS011;16392;52.508;13.468;2023-08-06T10:06:26;521.70;;;238.77;;
8562;SDS011;16392;52.508;13.468;2023-08-06T10:08:53;524.07;;;234.30;;
8562;SDS011;16392;52.508;13.468;2023-08-06T10:11:22;526.27;;;242.70;;
8562;SDS011;16392;52.508;13.468;2023-08-06T10:14:00;531.97;;;259.20;;
8562;SDS011;16392;52.508;13.468;2023-08-06T10:16:29;524.03;;;248.23;;
8562;SDS011;16392;52.508;13.468;2023-08-06T10:18:57;526.57;;;263.07;;
8562;SDS011;16392;52.508;13.468;2023-08-06T10:21:24;529.03;;;263.50;;
8562;SDS011;16392;52.508;13.468;2023-08-06T10:23:53;528.17;;;271.07;;
8562;SDS011;16392;52.508;13.468;2023-08-06T10:26:22;535.83;;;279.03;;
8562;SDS011;16392;52.508;13.468;2023-08-06T10:28:51;526.43;;;269.63;;
8562;SDS011;16392;52.508;13.468;2023-08-06T10:31:18;528.57;;;263.80;;
8562;SDS011;16392;52.508;13.468;2023-08-06T10:33:45;527.97;;;271.30;;
8562;SDS011;16392;52.508;13.468;2023-08-06T10:36:13;530.50;;;269.83;;
8562;SDS011;16392;52.508;13.468;2023-08-06T10:38:44;529.30;;;261.43;;
8562;SDS011;16392;52.508;13.468;2023-08-06T10:41:15;527.40;;;260.30;;
8562;SDS011;16392;52.508;13.468;2023-08-06T10:43:44;532.53;;;281.23;;
8562;SDS011;16392;52.508;13.468;2023-08-06T10:46:21;532.97;;;278.33;;
8562;SDS011;16392;52.508;13.468;2023-08-06T10:48:49;531.93;;;268.97;;
8562;SDS011;16392;52.508;13.468;2023-08-06T10:51:16;535.73;;;300.97;;
8562;SDS011;16392;52.508;13.468;2023-08-06T10:53:44;530.60;;;281.47;;
8562;SDS011;16392;52.508;13.468;2023-08-06T10:56:12;533.70;;;280.10;;
8562;SDS011;16392;52.508;13.468;2023-08-06T10:58:40;535.60;;;293.77;;
8562;SDS011;16392;52.508;13.468;2023-08-06T11:01:08;533.73;;;287.37;;
8562;SDS011;16392;52.508;13.468;2023-08-06T11:03:34;532.60;;;285.60;;
8562;SDS011;16392;52.508;13.468;2023-08-06T11:06:02;538.53;;;312.70;;
8562;SDS011;16392;52.508;13.468;2023-08-06T11:08:32;539.30;;;316.23;;
8562;SDS011;16392;52.508;13.468;2023-08-06T11:11:07;536.83;;;310.50;;
8562;SDS011;16392;52.508;13.468;2023-08-06T11:13:35;538.60;;;312.47;;
8562;SDS011;16392;52.508;13.468;2023-08-06T11:16:02;537.27;;;300.10;;
8562;SDS011;16392;52.508;13.468;2023-08-06T11:18:30;537.37;;;296.20;;
8562;SDS011;16392;52.508;13.468;2023-08-06T11:20:58;534.20;;;292.13;;
8562;SDS011;16392;52.508;13.468;2023-08-06T11:23:25;538.53;;;306.20;;
8562;SDS011;16392;52.508;13.468;2023-08-06T11:25:53;540.90;;;316.20;;
8562;SDS011;16392;52.508;13.468;2023-08-06T11:28:19;539.10;;;315.23;;
8562;SDS011;16392;52.508;13.468;2023-08-06T11:30:47;538.70;;;317.20;;
8562;SDS011;16392;52.508;13.468;2023-08-06T11:33:13;536.67;;;304.20;;
8562;SDS011;16392;52.508;13.468;2023-08-06T11:35:41;532.37;;;283.93;;
8562;SDS011;16392;52.508;13.468;2023-08-06T11:38:08;533.10;;;284.07;;
8562;SDS011;16392;52.508;13.468;2023-08-06T11:40:35;540.00;;;319.17;;
8562;SDS011;16392;52.508;13.468;2023-08-06T11:43:01;536.90;;;311.20;;
8562;SDS011;16392;52.508;13.468;2023-08-06T11:45:28;539.30;;;308.60;;
8562;SDS011;16392;52.508;13.468;2023-08-06T11:47:55;537.87;;;308.40;;
8562;SDS011;16392;52.508;13.468;2023-08-06T11:50:22;534.80;;;306.00;;
8562;SDS011;16392;52.508;13.468;2023-08-06T11:52:52;541.80;;;319.33;;
8562;SDS011;16392;52.508;13.468;2023-08-06T11:55:22;542.00;;;309.33;;
8562;SDS011;16392;52.508;13.468;2023-08-06T11:57:49;540.40;;;320.77;;
8562;SDS011;16392;52.508;13.468;2023-08-06T12:00:16;541.07;;;327.03;;
8562;SDS011;16392;52.508;13.468;2023-08-06T12:02:45;540.53;;;335.87;;
8562;SDS011;16392;52.508;13.468;2023-08-06T12:05:14;544.33;;;342.43;;
8562;SDS011;16392;52.508;13.468;2023-08-06T12:07:42;546.57;;;348.60;;
8562;SDS011;16392;52.508;13.468;2023-08-06T12:10:11;549.17;;;352.10;;
8562;SDS011;16392;52.508;13.468;2023-08-06T12:12:38;553.57;;;355.63;;
8562;SDS011;16392;52.508;13.468;2023-08-06T12:15:05;551.13;;;355.37;;
8562;SDS011;16392;52.508;13.468;2023-08-06T12:17:33;549.20;;;344.03;;
8562;SDS011;16392;52.508;13.468;2023-08-06T12:20:00;546.30;;;357.43;;
8562;SDS011;16392;52.508;13.468;2023-08-06T12:22:29;550.47;;;371.13;;
8562;SDS011;16392;52.508;13.468;2023-08-06T12:24:59;551.03;;;360.77;;
8562;SDS011;16392;52.508;13.468;2023-08-06T12:27:27;556.33;;;387.07;;
8562;SDS011;16392;52.508;13.468;2023-08-06T12:29:54;563.27;;;409.63;;
8562;SDS011;16392;52.508;13.468;2023-08-06T12:32:21;558.63;;;390.57;;
8562;SDS011;16392;52.508;13.468;2023-08-06T12:34:47;553.53;;;377.07;;
8562;SDS011;16392;52.508;13.468;2023-08-06T12:37:14;550.27;;;357.30;;
8562;SDS011;16392;52.508;13.468;2023-08-06T12:39:41;551.67;;;367.03;;
8562;SDS011;16392;52.508;13.468;2023-08-06T12:42:07;551.10;;;355.03;;
8562;SDS011;16392;52.508;13.468;2023-08-06T12:44:36;550.10;;;360.53;;
8562;SDS011;16392;52.508;13.468;2023-08-06T12:47:03;552.83;;;374.13;;
8562;SDS011;16392;52.508;13.468;2023-08-06T12:49:29;552.57;;;361.80;;
8562;SDS011;16392;52.508;13.468;2023-08-06T12:51:58;547.27;;;366.77;;
8562;SDS011;16392;52.508;13.468;2023-08-06T12:54:25;549.53;;;360.47;;
8562;SDS011;16392;52.508;13.468;2023-08-06T12:56:52;549.53;;;360.00;;
8562;SDS011;16392;52.508;13.468;2023-08-06T12:59:19;548.97;;;358.30;;
8562;SDS011;16392;52.508;13.468;2023-08-06T13:01:47;549.90;;;363.37;;
8562;SDS011;16392;52.508;13.468;2023-08-06T13:04:14;552.37;;;365.47;;
8562;SDS011;16392;52.508;13.468;2023-08-06T13:06:40;549.63;;;356.33;;
8562;SDS011;16392;52.508;13.468;2023-08-06T13:09:07;552.47;;;338.83;;
8562;SDS011;16392;52.508;13.468;2023-08-06T13:11:34;541.13;;;331.37;;
8562;SDS011;16392;52.508;13.468;2023-08-06T13:14:03;542.27;;;330.90;;
8562;SDS011;16392;52.508;13.468;2023-08-06T13:16:31;544.53;;;332.13;;
8562;SDS011;16392;52.508;13.468;2023-08-06T13:18:59;538.80;;;314.17;;
8562;SDS011;16392;52.508;13.468;2023-08-06T13:21:31;539.27;;;315.07;;
8562;SDS011;16392;52.508;13.468;2023-08-06T13:23:59;535.27;;;307.80;;
8562;SDS011;16392;52.508;13.468;2023-08-06T13:26:26;538.97;;;317.57;;
8562;SDS011;16392;52.508;13.468;2023-08-06T13:28:53;535.00;;;302.17;;
8562;SDS011;16392;52.508;13.468;2023-08-06T13:31:20;528.67;;;286.77;;
8562;SDS011;16392;52.508;13.468;2023-08-06T13:33:46;533.40;;;292.00;;
8562;SDS011;16392;52.508;13.468;2023-08-06T13:36:16;532.43;;;296.23;;
8562;SDS011;16392;52.508;13.468;2023-08-06T13:38:42;533.03;;;281.70;;
8562;SDS011;16392;52.508;13.468;2023-08-06T13:41:09;525.37;;;278.40;;
8562;SDS011;16392;52.508;13.468;2023-08-06T13:43:35;527.17;;;262.47;;
8562;SDS011;16392;52.508;13.468;2023-08-06T13:46:02;526.40;;;273.27;;
8562;SDS011;16392;52.508;13.468;2023-08-06T13:48:29;531.03;;;273.90;;
8562;SDS011;16392;52.508;13.468;2023-08-06T13:50:55;524.23;;;259.03;;
8562;SDS011;16392;52.508;13.468;2023-08-06T13:53:23;530.60;;;263.50;;
8562;SDS011;16392;52.508;13.468;2023-08-06T13:55:50;526.33;;;273.47;;
8562;SDS011;16392;52.508;13.468;2023-08-06T13:58:16;523.90;;;260.20;;